Time;durP1;ratioP1;P1;durP2;ratioP2;P2;SDS_P1;SDS_P2;PMS_P1;PMS_P2;Temp;Humidity;BMP_temperature;BMP_pressure;BME280_temperature;BME280_humidity;BME280_pressure;Samples;Min_cycle;Max_cycle;Signal;HPM_P1;HPM_P2
2023/09/09 00:01:00;;;;;;;24.03;23.23;;;21.20;99.90;;;;;;5032648;28;20211;-63
2023/09/09 00:03:27;;;;;;;21.15;20.45;;;21.20;99.90;;;;;;5030800;28;20670;-63
2023/09/09 00:05:54;;;;;;;26.55;25.55;;;21.20;99.90;;;;;;5031328;28;20228;-63
2023/09/09 00:08:21;;;;;;;24.50;23.57;;;21.20;99.90;;;;;;5031434;28;20201;-63
2023/09/09 00:10:48;;;;;;;24.08;23.25;;;21.20;99.90;;;;;;5032245;28;20205;-63
2023/09/09 00:13:15;;;;;;;28.65;27.48;;;21.20;99.90;;;;;;5032966;28;20201;-62
2023/09/09 00:15:42;;;;;;;23.15;22.35;;;21.20;99.90;;;;;;5033828;28;20324;-62
2023/09/09 00:18:11;;;;;;;22.80;22.00;;;21.20;99.90;;;;;;5033248;28;20311;-63
2023/09/09 00:20:40;;;;;;;21.33;20.60;;;21.20;99.90;;;;;;5032733;28;20200;-63
2023/09/09 00:23:08;;;;;;;20.83;20.13;;;21.20;99.90;;;;;;5031079;28;20223;-63
2023/09/09 00:25:35;;;;;;;22.35;21.55;;;21.10;99.90;;;;;;5030926;28;20243;-63
2023/09/09 00:28:02;;;;;;;21.67;20.88;;;21.10;99.90;;;;;;5031321;28;20207;-63
2023/09/09 00:30:29;;;;;;;24.90;24.00;;;21.00;99.90;;;;;;5035276;28;20205;-64
2023/09/09 00:32:56;;;;;;;23.25;22.45;;;21.00;99.90;;;;;;5031964;28;20204;-64
2023/09/09 00:35:24;;;;;;;21.75;20.95;;;21.00;99.90;;;;;;5031121;28;20702;-64
2023/09/09 00:37:51;;;;;;;23.98;23.17;;;20.90;99.90;;;;;;5030967;28;20729;-63
2023/09/09 00:40:18;;;;;;;23.98;23.15;;;20.90;99.90;;;;;;5030945;28;20200;-63
2023/09/09 00:42:45;;;;;;;23.00;22.20;;;21.00;99.90;;;;;;5033712;28;20228;-63
2023/09/09 00:45:12;;;;;;;23.90;23.00;;;20.90;99.90;;;;;;5044181;28;20221;-63
2023/09/09 00:47:39;;;;;;;23.17;22.38;;;20.90;99.90;;;;;;5044659;28;20236;-63
2023/09/09 00:50:10;;;;;;;28.13;27.13;;;20.80;99.90;;;;;;5032328;28;20215;-63
2023/09/09 00:52:38;;;;;;;23.73;22.92;;;20.80;99.90;;;;;;5031550;28;20283;-64
2023/09/09 00:55:06;;;;;;;26.85;25.92;;;20.80;99.90;;;;;;5031502;28;20220;-62
2023/09/09 00:57:33;;;;;;;25.08;24.17;;;20.70;99.90;;;;;;5031800;28;20200;-63
2023/09/09 01:00:04;;;;;;;24.40;23.50;;;20.70;99.90;;;;;;5011780;28;20228;-63
2023/09/09 01:02:31;;;;;;;23.70;22.88;;;20.80;99.90;;;;;;5011368;28;20697;-63
2023/09/09 01:04:59;;;;;;;26.30;25.40;;;20.70;99.90;;;;;;5011657;28;20221;-63
2023/09/09 01:07:26;;;;;;;26.50;25.55;;;20.70;99.90;;;;;;5016546;28;20202;-62
2023/09/09 01:09:54;;;;;;;25.95;24.95;;;20.70;99.90;;;;;;5015639;28;20201;-63
2023/09/09 01:12:24;;;;;;;24.80;23.90;;;20.70;99.90;;;;;;5013976;28;20208;-62
2023/09/09 01:14:51;;;;;;;22.75;21.95;;;20.70;99.90;;;;;;5014470;28;20788;-63
2023/09/09 01:17:18;;;;;;;27.13;26.17;;;20.70;99.90;;;;;;5014828;28;20731;-62
2023/09/09 01:19:45;;;;;;;26.13;25.17;;;20.60;99.90;;;;;;5015531;28;20202;-64
2023/09/09 01:22:18;;;;;;;24.73;23.85;;;20.50;99.90;;;;;;5014308;28;20209;-64
2023/09/09 01:24:45;;;;;;;25.13;24.23;;;20.40;99.90;;;;;;5014470;28;20225;-63
2023/09/09 01:27:13;;;;;;;23.75;22.92;;;20.40;99.90;;;;;;5014537;28;20208;-64
2023/09/09 01:29:41;;;;;;;26.23;25.33;;;20.40;99.90;;;;;;5014460;28;20723;-63
2023/09/09 01:32:08;;;;;;;26.40;25.48;;;20.40;99.90;;;;;;5013752;28;20207;-61
2023/09/09 01:34:35;;;;;;;26.02;25.02;;;20.30;99.90;;;;;;5014475;28;20193;-62
2023/09/09 01:37:02;;;;;;;27.00;26.00;;;20.30;99.90;;;;;;5014477;28;20197;-62
2023/09/09 01:39:30;;;;;;;26.00;25.10;;;20.40;99.90;;;;;;5014351;28;20213;-62
2023/09/09 01:41:57;;;;;;;23.70;22.90;;;20.30;99.90;;;;;;5014954;28;20197;-63
2023/09/09 01:44:24;;;;;;;28.05;27.00;;;20.30;99.90;;;;;;5014542;28;20228;-63
2023/09/09 01:46:50;;;;;;;25.40;24.50;;;20.30;99.90;;;;;;5014091;28;20205;-64
2023/09/09 01:49:17;;;;;;;27.38;26.42;;;20.20;99.90;;;;;;5014058;28;20208;-64
2023/09/09 01:51:44;;;;;;;27.67;26.67;;;20.10;99.90;;;;;;5014217;28;20589;-63
2023/09/09 01:54:11;;;;;;;32.35;31.20;;;20.10;99.90;;;;;;5013737;28;20204;-63
2023/09/09 01:56:39;;;;;;;29.17;28.15;;;20.10;99.90;;;;;;5013887;28;20225;-63
2023/09/09 01:59:06;;;;;;;25.30;24.40;;;20.10;99.90;;;;;;5013850;28;20201;-64
2023/09/09 02:01:33;;;;;;;26.98;25.98;;;20.00;99.90;;;;;;5014217;28;20204;-64
2023/09/09 02:03:59;;;;;;;27.92;26.92;;;20.00;99.90;;;;;;5029588;28;20220;-63
2023/09/09 02:06:28;;;;;;;27.77;26.77;;;20.00;99.90;;;;;;5040955;28;20246;-63
2023/09/09 02:08:55;;;;;;;26.95;26.02;;;20.00;99.90;;;;;;5037817;28;20215;-63
2023/09/09 02:11:21;;;;;;;24.20;23.38;;;20.10;99.90;;;;;;5036411;28;20269;-63
2023/09/09 02:13:49;;;;;;;28.50;27.47;;;20.10;99.90;;;;;;5015049;28;20989;-63
2023/09/09 02:16:17;;;;;;;26.75;25.85;;;20.10;99.90;;;;;;5038444;28;20324;-62
2023/09/09 02:18:43;;;;;;;25.08;24.17;;;20.00;99.90;;;;;;5028263;28;20916;-63
2023/09/09 02:21:10;;;;;;;30.88;29.77;;;20.00;99.90;;;;;;5028302;28;20204;-63
2023/09/09 02:23:40;;;;;;;23.23;22.42;;;20.00;99.90;;;;;;5034998;28;20246;-64
2023/09/09 02:26:08;;;;;;;31.13;30.02;;;20.00;99.90;;;;;;5033215;28;20229;-64
2023/09/09 02:28:35;;;;;;;26.30;25.40;;;19.90;99.90;;;;;;5034101;28;20205;-64
2023/09/09 02:31:03;;;;;;;22.67;21.87;;;19.80;99.90;;;;;;5033894;28;20207;-63
2023/09/09 02:33:30;;;;;;;23.42;22.52;;;19.80;99.90;;;;;;5033450;28;20644;-63
2023/09/09 02:36:00;;;;;;;24.80;23.90;;;19.70;99.90;;;;;;5034393;28;20224;-63
2023/09/09 02:38:27;;;;;;;27.17;26.17;;;19.80;99.90;;;;;;5033830;28;20197;-63
2023/09/09 02:40:54;;;;;;;24.35;23.45;;;19.80;99.90;;;;;;5033345;28;20663;-64
2023/09/09 02:43:21;;;;;;;25.58;24.67;;;19.80;99.90;;;;;;5032776;28;20220;-63
2023/09/09 02:45:47;;;;;;;23.33;22.52;;;19.70;99.90;;;;;;5036240;28;20224;-62
2023/09/09 02:48:16;;;;;;;24.83;23.92;;;19.70;99.90;;;;;;5037196;28;20686;-63
2023/09/09 02:50:43;;;;;;;23.40;22.60;;;19.70;99.90;;;;;;5033205;28;20211;-63
2023/09/09 02:53:09;;;;;;;25.58;24.67;;;19.70;99.90;;;;;;5032717;28;20204;-64
2023/09/09 02:55:36;;;;;;;26.08;25.17;;;19.70;99.90;;;;;;5032939;28;20224;-63
2023/09/09 02:58:03;;;;;;;27.83;26.83;;;19.50;99.90;;;;;;5033361;28;20211;-62
2023/09/09 03:00:31;;;;;;;23.73;22.92;;;19.50;99.90;;;;;;5034854;28;20213;-62
2023/09/09 03:02:58;;;;;;;26.67;25.73;;;19.60;99.90;;;;;;5038134;28;20216;-63
2023/09/09 03:05:26;;;;;;;25.38;24.48;;;19.50;99.90;;;;;;5038181;28;20274;-63
2023/09/09 03:07:53;;;;;;;29.55;28.52;;;19.60;99.90;;;;;;5034136;28;20204;-63
2023/09/09 03:10:20;;;;;;;27.15;26.17;;;19.70;99.90;;;;;;5032530;28;20691;-63
2023/09/09 03:12:46;;;;;;;27.70;26.35;;;19.70;99.90;;;;;;5032383;28;20204;-63
2023/09/09 03:15:13;;;;;;;24.70;23.80;;;19.70;99.90;;;;;;5032476;28;20244;-64
2023/09/09 03:17:40;;;;;;;26.38;25.38;;;19.60;99.90;;;;;;5032344;28;20211;-63
2023/09/09 03:20:09;;;;;;;25.30;24.40;;;19.60;99.90;;;;;;5031911;28;20663;-63
2023/09/09 03:22:37;;;;;;;23.90;23.00;;;19.60;99.90;;;;;;5031855;28;20873;-63
2023/09/09 03:25:04;;;;;;;25.75;24.85;;;19.60;99.90;;;;;;5024266;28;20225;-62
2023/09/09 03:27:32;;;;;;;24.00;23.08;;;19.50;99.90;;;;;;5075126;22;20243;-64
2023/09/09 03:29:59;;;;;;;27.90;26.90;;;19.60;99.90;;;;;;5071696;28;20606;-64
2023/09/09 03:32:26;;;;;;;24.73;23.83;;;19.50;99.90;;;;;;5071859;28;20199;-63
2023/09/09 03:34:53;;;;;;;28.67;27.67;;;19.60;99.90;;;;;;5072055;28;20200;-64
2023/09/09 03:37:21;;;;;;;26.60;25.70;;;19.60;99.90;;;;;;5071678;28;20226;-64
2023/09/09 03:39:50;;;;;;;24.45;23.55;;;19.60;99.90;;;;;;5070833;28;20207;-61
2023/09/09 03:42:17;;;;;;;28.55;27.55;;;19.60;99.90;;;;;;5070457;28;20654;-63
2023/09/09 03:44:43;;;;;;;23.80;22.98;;;19.70;99.90;;;;;;5071096;28;20223;-64
2023/09/09 03:47:10;;;;;;;26.25;25.35;;;19.60;99.90;;;;;;5070867;28;20229;-62
2023/09/09 03:49:37;;;;;;;26.95;25.98;;;19.80;99.90;;;;;;5072011;28;20208;-66
2023/09/09 03:52:04;;;;;;;28.08;27.08;;;19.70;99.90;;;;;;5072893;28;20210;-63
2023/09/09 03:54:31;;;;;;;25.88;24.98;;;19.60;99.90;;;;;;5071136;28;20203;-63
2023/09/09 03:56:59;;;;;;;24.00;23.20;;;19.60;99.90;;;;;;5070815;28;20234;-64
2023/09/09 03:59:29;;;;;;;26.40;25.40;;;19.60;99.90;;;;;;5070838;28;20227;-63
2023/09/09 04:01:56;;;;;;;25.13;24.23;;;19.60;99.90;;;;;;5070634;28;20238;-63
2023/09/09 04:04:22;;;;;;;26.30;25.35;;;19.60;99.90;;;;;;5070912;28;20313;-63
2023/09/09 04:06:50;;;;;;;26.65;25.73;;;19.60;99.90;;;;;;5070945;28;20222;-63
2023/09/09 04:09:22;;;;;;;25.02;24.13;;;19.60;99.90;;;;;;5070929;28;20200;-63
2023/09/09 04:11:49;;;;;;;26.10;25.17;;;19.60;99.90;;;;;;5071310;28;20240;-63
2023/09/09 04:14:17;;;;;;;26.13;25.20;;;19.60;99.90;;;;;;5070779;28;20195;-64
2023/09/09 04:16:44;;;;;;;25.85;24.95;;;19.60;99.90;;;;;;5071056;28;20284;-64
2023/09/09 04:19:11;;;;;;;23.95;23.08;;;19.50;99.90;;;;;;5070412;28;20302;-65
2023/09/09 04:21:38;;;;;;;21.83;21.02;;;19.50;99.90;;;;;;5070255;28;20685;-62
2023/09/09 04:24:05;;;;;;;24.25;23.40;;;19.50;99.90;;;;;;5070496;28;20241;-63
2023/09/09 04:26:32;;;;;;;26.90;25.98;;;19.50;99.90;;;;;;5071066;28;20594;-63
2023/09/09 04:29:00;;;;;;;32.72;31.52;;;19.50;99.90;;;;;;5071808;28;20207;-59
2023/09/09 04:31:28;;;;;;;22.50;21.70;;;19.50;99.90;;;;;;5072233;28;20199;-61
2023/09/09 04:33:55;;;;;;;22.08;21.27;;;19.70;99.90;;;;;;5071394;28;20207;-59
2023/09/09 04:36:21;;;;;;;25.90;25.00;;;20.00;99.90;;;;;;5070427;28;20223;-59
2023/09/09 04:38:48;;;;;;;29.38;28.33;;;20.20;99.90;;;;;;5070449;28;20594;-60
2023/09/09 04:41:15;;;;;;;20.63;19.90;;;20.50;99.90;;;;;;5068040;28;20210;-59
2023/09/09 04:43:43;;;;;;;23.88;22.98;;;20.70;99.90;;;;;;5062368;28;20210;-59
2023/09/09 04:46:10;;;;;;;18.33;17.70;;;20.80;99.90;;;;;;5070369;28;20227;-60
2023/09/09 04:48:38;;;;;;;25.33;24.42;;;21.00;99.90;;;;;;5072240;28;20275;-61
2023/09/09 04:51:05;;;;;;;18.42;17.75;;;21.20;99.90;;;;;;5074676;28;20233;-59
2023/09/09 04:53:32;;;;;;;20.70;20.00;;;21.30;99.90;;;;;;5074150;28;20221;-59
2023/09/09 04:56:00;;;;;;;18.65;18.00;;;21.20;99.90;;;;;;5073572;28;20716;-60
2023/09/09 04:58:27;;;;;;;19.80;19.10;;;21.30;99.90;;;;;;5074073;28;20287;-62
2023/09/09 05:00:54;;;;;;;18.08;17.40;;;21.40;99.90;;;;;;5074121;28;20583;-60
2023/09/09 05:03:20;;;;;;;21.25;20.45;;;21.30;99.90;;;;;;5074612;28;20199;-59
2023/09/09 05:05:48;;;;;;;22.55;21.75;;;21.30;99.90;;;;;;5074214;28;20237;-62
2023/09/09 05:08:15;;;;;;;21.65;20.88;;;21.30;99.90;;;;;;5074401;28;20199;-60
2023/09/09 05:10:42;;;;;;;18.05;17.35;;;21.20;99.90;;;;;;5074258;28;20300;-61
2023/09/09 05:13:09;;;;;;;25.55;24.65;;;21.10;99.90;;;;;;5073921;28;20203;-60
2023/09/09 05:15:36;;;;;;;25.40;24.50;;;21.00;99.90;;;;;;5074074;28;20199;-61
2023/09/09 05:18:03;;;;;;;26.25;25.35;;;21.00;99.90;;;;;;5074439;28;20218;-59
2023/09/09 05:20:29;;;;;;;22.52;21.73;;;21.10;99.90;;;;;;5074053;28;20569;-59
2023/09/09 05:22:58;;;;;;;17.67;17.08;;;21.20;99.90;;;;;;5065065;28;20212;-59
2023/09/09 05:25:24;;;;;;;18.58;17.92;;;21.40;99.90;;;;;;5073824;28;20215;-59
2023/09/09 05:27:51;;;;;;;20.13;19.33;;;21.40;99.90;;;;;;5075447;28;20592;-59
2023/09/09 05:30:19;;;;;;;19.52;18.83;;;21.40;99.90;;;;;;5075011;28;20209;-62
2023/09/09 05:32:46;;;;;;;20.50;19.80;;;21.20;99.90;;;;;;5073758;28;20541;-62
2023/09/09 05:35:13;;;;;;;19.65;18.85;;;20.80;99.90;;;;;;5057394;28;20575;-63
2023/09/09 05:37:40;;;;;;;19.05;18.35;;;20.40;99.90;;;;;;5073311;28;20306;-62
2023/09/09 05:40:10;;;;;;;22.40;21.60;;;20.10;99.90;;;;;;5073893;28;21256;-63
2023/09/09 05:42:37;;;;;;;22.50;21.70;;;20.00;99.90;;;;;;5073104;28;20203;-63
2023/09/09 05:45:04;;;;;;;22.20;21.40;;;19.90;99.90;;;;;;5074338;28;20813;-63
2023/09/09 05:47:31;;;;;;;26.73;25.73;;;19.80;99.90;;;;;;5075027;28;20220;-64
2023/09/09 05:49:58;;;;;;;24.90;24.00;;;19.90;99.90;;;;;;5073438;28;20716;-62
2023/09/09 05:52:25;;;;;;;26.50;25.60;;;19.80;99.90;;;;;;5073425;28;20210;-62
2023/09/09 05:54:51;;;;;;;25.02;24.13;;;19.80;99.90;;;;;;5073860;28;20282;-62
2023/09/09 05:57:20;;;;;;;27.42;26.45;;;19.80;99.90;;;;;;5075295;28;20221;-63
2023/09/09 05:59:47;;;;;;;25.33;24.42;;;19.80;99.90;;;;;;5075529;28;20222;-62
2023/09/09 06:02:13;;;;;;;28.10;27.10;;;19.90;99.90;;;;;;5074815;28;20204;-63
2023/09/09 06:04:40;;;;;;;28.70;27.70;;;19.90;99.90;;;;;;5073022;28;20225;-63
2023/09/09 06:07:07;;;;;;;29.83;28.83;;;19.90;99.90;;;;;;5076650;28;20219;-63
2023/09/09 06:09:34;;;;;;;30.02;28.98;;;19.90;99.90;;;;;;5073419;28;20199;-63
2023/09/09 06:12:03;;;;;;;28.73;27.73;;;20.00;99.90;;;;;;5073353;28;20290;-63
2023/09/09 06:14:31;;;;;;;32.65;31.45;;;20.10;99.90;;;;;;5073232;28;20191;-63
2023/09/09 06:16:58;;;;;;;33.65;32.45;;;20.10;99.90;;;;;;5072782;28;20298;-63
2023/09/09 06:19:25;;;;;;;33.90;32.70;;;20.20;99.90;;;;;;5073027;28;20213;-63
2023/09/09 06:21:51;;;;;;;30.90;29.80;;;20.30;99.90;;;;;;5072858;28;20211;-63
2023/09/09 06:24:18;;;;;;;34.90;33.67;;;20.40;99.90;;;;;;5072554;28;20305;-63
2023/09/09 06:26:45;;;;;;;36.03;34.72;;;20.50;99.90;;;;;;5072688;28;20604;-63
2023/09/09 06:29:12;;;;;;;30.20;29.15;;;20.60;99.90;;;;;;5072681;28;20206;-63
2023/09/09 06:31:41;;;;;;;31.63;30.52;;;20.60;99.90;;;;;;5072729;28;20234;-63
2023/09/09 06:34:10;;;;;;;34.95;33.70;;;20.60;99.90;;;;;;5074106;28;20207;-62
2023/09/09 06:36:36;;;;;;;35.00;33.80;;;20.60;99.90;;;;;;5075639;28;20760;-62
2023/09/09 06:39:04;;;;;;;33.10;31.90;;;20.70;99.90;;;;;;5076230;28;20238;-62
2023/09/09 06:41:31;;;;;;;35.72;34.42;;;20.80;99.90;;;;;;5073561;28;20650;-63
2023/09/09 06:43:57;;;;;;;32.80;31.63;;;20.90;99.90;;;;;;5072302;28;20203;-63
2023/09/09 06:46:24;;;;;;;31.15;30.05;;;20.90;99.90;;;;;;5064085;28;20227;-63
2023/09/09 06:48:52;;;;;;;30.38;29.27;;;21.00;99.90;;;;;;5072189;28;20294;-63
2023/09/09 06:51:19;;;;;;;30.77;29.67;;;21.10;99.90;;;;;;5072476;28;20663;-63
2023/09/09 06:53:46;;;;;;;21.48;20.67;;;21.20;99.90;;;;;;5080567;28;20217;-63
2023/09/09 06:56:13;;;;;;;22.90;22.10;;;21.20;99.90;;;;;;5073488;28;20230;-62
2023/09/09 06:58:40;;;;;;;19.85;19.15;;;21.30;99.90;;;;;;5072879;28;20203;-62
2023/09/09 07:01:06;;;;;;;22.98;22.15;;;21.40;99.90;;;;;;5064814;28;20696;-62
2023/09/09 07:03:34;;;;;;;16.65;16.05;;;21.50;99.90;;;;;;5072908;28;20204;-63
2023/09/09 07:06:03;;;;;;;22.13;21.37;;;21.60;99.90;;;;;;5073861;28;20235;-63
2023/09/09 07:08:30;;;;;;;18.50;17.83;;;21.70;99.90;;;;;;5077402;28;20279;-63
2023/09/09 07:10:57;;;;;;;17.20;16.60;;;21.80;99.90;;;;;;5072360;28;20199;-62
2023/09/09 07:13:24;;;;;;;17.65;17.05;;;21.90;99.90;;;;;;5072539;28;20298;-62
2023/09/09 07:15:52;;;;;;;20.05;19.33;;;22.00;99.90;;;;;;5071992;28;20216;-63
2023/09/09 07:18:19;;;;;;;18.80;18.13;;;22.10;99.90;;;;;;5072732;28;20264;-63
2023/09/09 07:20:46;;;;;;;18.05;17.45;;;22.30;99.90;;;;;;5064278;28;20207;-63
2023/09/09 07:23:15;;;;;;;18.83;18.23;;;22.40;99.90;;;;;;5072218;28;20682;-63
2023/09/09 07:25:42;;;;;;;19.15;18.45;;;22.50;99.90;;;;;;5072830;28;20219;-63
2023/09/09 07:28:09;;;;;;;21.27;20.52;;;22.70;99.90;;;;;;5073285;28;20200;-63
2023/09/09 07:30:36;;;;;;;21.70;20.92;;;22.80;99.90;;;;;;5073301;28;20290;-62
2023/09/09 07:33:03;;;;;;;22.27;21.48;;;22.90;99.90;;;;;;5072227;28;20211;-62
2023/09/09 07:35:30;;;;;;;24.35;23.50;;;23.00;99.90;;;;;;5072684;28;20246;-62
2023/09/09 07:37:57;;;;;;;29.15;28.08;;;23.20;99.90;;;;;;5072548;28;20207;-62
2023/09/09 07:40:25;;;;;;;31.67;30.58;;;23.40;99.90;;;;;;5069684;28;20287;-63
2023/09/09 07:42:53;;;;;;;34.03;32.83;;;23.50;99.90;;;;;;5062646;28;20716;-62
2023/09/09 07:45:20;;;;;;;31.73;30.60;;;23.70;99.90;;;;;;5052855;28;20223;-63
2023/09/09 07:47:47;;;;;;;31.98;30.85;;;23.80;99.90;;;;;;5069982;28;20233;-63
2023/09/09 07:50:14;;;;;;;29.30;28.30;;;23.90;99.90;;;;;;5073826;28;20211;-63
2023/09/09 07:52:41;;;;;;;25.55;24.65;;;24.00;99.90;;;;;;5071152;28;20210;-63
2023/09/09 07:55:09;;;;;;;23.65;22.77;;;24.10;99.90;;;;;;5069596;28;20200;-63
2023/09/09 07:57:37;;;;;;;19.80;19.10;;;24.30;99.90;;;;;;5080222;28;20310;-63
2023/09/09 08:00:07;;;;;;;18.38;17.75;;;24.20;99.90;;;;;;5076380;28;20673;-63
2023/09/09 08:02:35;;;;;;;20.27;19.58;;;24.20;99.90;;;;;;5057779;28;20728;-63
2023/09/09 08:05:02;;;;;;;18.15;17.45;;;24.50;99.90;;;;;;5069290;28;20215;-63
2023/09/09 08:07:29;;;;;;;19.08;18.38;;;24.60;99.90;;;;;;5071509;28;20219;-63
2023/09/09 08:09:55;;;;;;;17.25;16.65;;;24.70;99.90;;;;;;5071405;28;20609;-63
2023/09/09 08:12:22;;;;;;;18.63;17.92;;;24.90;99.90;;;;;;5072976;28;20195;-60
2023/09/09 08:15:04;;;;;;;19.63;18.90;;;25.00;99.90;;;;;;5078519;28;20290;-63
2023/09/09 08:17:31;;;;;;;17.52;16.92;;;25.00;99.90;;;;;;5060135;28;20310;-63
2023/09/09 08:19:58;;;;;;;18.65;18.00;;;25.10;99.90;;;;;;5074579;28;20298;-62
2023/09/09 08:22:25;;;;;;;17.40;16.80;;;25.20;99.90;;;;;;5075928;28;20267;-62
2023/09/09 08:24:52;;;;;;;17.30;16.70;;;25.30;99.90;;;;;;5072963;28;20304;-62
2023/09/09 08:27:19;;;;;;;16.60;16.00;;;25.40;99.90;;;;;;5071197;28;20607;-63
2023/09/09 08:29:46;;;;;;;18.48;17.67;;;25.50;99.90;;;;;;5071123;28;20203;-62
2023/09/09 08:32:14;;;;;;;20.10;19.40;;;25.50;99.90;;;;;;5053919;28;20204;-63
2023/09/09 08:34:41;;;;;;;17.98;17.35;;;25.70;99.90;;;;;;5070936;28;20633;-61
2023/09/09 08:37:08;;;;;;;19.02;18.33;;;25.80;99.90;;;;;;5069152;28;20226;-62
2023/09/09 08:39:35;;;;;;;19.20;18.42;;;26.00;99.90;;;;;;5071151;28;20207;-63
2023/09/09 08:42:11;;;;;;;18.67;17.98;;;26.10;99.90;;;;;;5070844;28;20211;-63
2023/09/09 08:44:45;;;;;;;18.65;17.95;;;26.10;99.90;;;;;;5062915;28;20285;-64
2023/09/09 08:47:15;;;;;;;16.42;15.73;;;26.10;99.90;;;;;;5070832;28;20231;-63
2023/09/09 08:49:43;;;;;;;18.42;17.77;;;26.10;99.90;;;;;;5065424;28;20200;-63
2023/09/09 08:52:18;;;;;;;19.55;18.75;;;26.30;99.90;;;;;;5069636;28;20290;-63
2023/09/09 08:54:45;;;;;;;18.70;18.00;;;26.40;99.90;;;;;;5063130;28;20608;-63
2023/09/09 08:57:12;;;;;;;17.27;16.67;;;26.50;99.90;;;;;;5070927;28;20215;-62
2023/09/09 08:59:40;;;;;;;17.60;17.00;;;26.50;99.90;;;;;;5070619;28;20207;-62
2023/09/09 09:02:10;;;;;;;19.15;18.45;;;26.70;99.90;;;;;;5069253;28;20218;-63
2023/09/09 09:04:38;;;;;;;19.25;18.55;;;26.80;99.90;;;;;;5064859;28;20196;-63
2023/09/09 09:07:06;;;;;;;17.80;17.20;;;27.00;99.90;;;;;;5071495;28;20239;-62
2023/09/09 09:09:34;;;;;;;19.50;18.80;;;26.90;99.90;;;;;;5071426;28;20217;-63
2023/09/09 09:12:02;;;;;;;19.67;18.98;;;26.90;99.90;;;;;;5071364;28;20208;-63
2023/09/09 09:14:29;;;;;;;19.60;18.90;;;27.00;99.90;;;;;;5070612;28;20286;-64
2023/09/09 09:16:57;;;;;;;18.35;17.65;;;27.10;99.90;;;;;;5070780;28;20225;-64
2023/09/09 09:19:27;;;;;;;18.85;18.15;;;27.10;99.90;;;;;;5055666;28;20642;-63
2023/09/09 09:21:56;;;;;;;19.05;18.35;;;27.20;99.90;;;;;;5089363;28;20313;-64
2023/09/09 09:24:24;;;;;;;20.50;19.70;;;27.40;99.90;;;;;;5087716;28;20278;-62
2023/09/09 09:26:51;;;;;;;19.23;18.52;;;27.50;99.90;;;;;;5072753;28;20247;-63
2023/09/09 09:29:18;;;;;;;20.83;20.05;;;27.60;99.90;;;;;;5074172;28;20238;-63
2023/09/09 09:31:51;;;;;;;29.40;28.30;;;27.60;99.90;;;;;;5072837;28;20241;-62
2023/09/09 09:34:19;;;;;;;21.35;20.55;;;27.80;99.90;;;;;;5073729;28;20215;-64
2023/09/09 09:36:47;;;;;;;22.90;22.10;;;27.80;99.90;;;;;;5075212;28;20223;-63
2023/09/09 09:39:15;;;;;;;22.88;22.08;;;27.70;99.90;;;;;;5066398;28;20673;-63
2023/09/09 09:41:43;;;;;;;24.23;23.33;;;27.60;99.90;;;;;;5074708;28;20225;-62
2023/09/09 09:44:18;;;;;;;20.55;19.80;;;27.70;99.90;;;;;;5074251;28;20653;-63
2023/09/09 09:47:00;;;;;;;21.63;20.88;;;27.80;99.90;;;;;;5074643;28;20264;-63
2023/09/09 09:49:34;;;;;;;22.17;21.38;;;27.90;99.90;;;;;;5074478;28;20203;-63
2023/09/09 09:52:02;;;;;;;23.13;22.23;;;28.00;99.90;;;;;;5074500;28;20202;-62
2023/09/09 09:54:32;;;;;;;22.30;21.50;;;28.10;99.90;;;;;;5074371;28;20196;-62
2023/09/09 09:57:01;;;;;;;19.83;19.13;;;28.30;99.90;;;;;;5074275;28;20215;-62
2023/09/09 09:59:32;;;;;;;24.30;23.40;;;28.20;99.90;;;;;;5074715;28;20203;-62
2023/09/09 10:01:59;;;;;;;22.27;21.48;;;28.20;99.90;;;;;;5074010;28;20206;-62
2023/09/09 10:04:28;;;;;;;23.67;22.77;;;28.20;99.90;;;;;;5073940;28;20218;-64
2023/09/09 10:06:57;;;;;;;22.00;21.20;;;28.30;99.90;;;;;;5073752;28;20227;-64
2023/09/09 10:09:34;;;;;;;20.27;19.58;;;28.40;99.90;;;;;;5073691;28;20214;-62
2023/09/09 10:12:05;;;;;;;19.55;18.85;;;28.50;99.90;;;;;;5068468;28;20206;-63
2023/09/09 10:14:34;;;;;;;20.02;19.23;;;28.60;99.90;;;;;;5078819;28;20202;-62
2023/09/09 10:17:05;;;;;;;20.50;19.80;;;28.70;99.90;;;;;;5077011;28;20223;-63
2023/09/09 10:19:33;;;;;;;19.45;18.75;;;28.80;99.90;;;;;;5061070;28;20226;-62
2023/09/09 10:22:00;;;;;;;20.52;19.83;;;28.80;99.90;;;;;;5074645;28;20221;-61
2023/09/09 10:24:29;;;;;;;20.73;19.95;;;28.80;99.90;;;;;;5058495;28;21035;-62
2023/09/09 10:26:59;;;;;;;23.95;23.05;;;28.90;99.90;;;;;;5074819;28;20235;-63
2023/09/09 10:29:26;;;;;;;23.02;22.10;;;29.00;99.90;;;;;;5073724;28;20199;-62
2023/09/09 10:31:54;;;;;;;22.20;20.95;;;29.10;99.90;;;;;;5073139;28;20668;-63
2023/09/09 10:34:23;;;;;;;23.30;22.50;;;29.20;99.90;;;;;;5073461;28;20213;-64
2023/09/09 10:36:52;;;;;;;47.72;45.38;;;29.10;99.90;;;;;;5074434;28;20215;-63
2023/09/09 10:39:22;;;;;;;19.73;19.02;;;29.10;99.90;;;;;;5073581;28;20207;-63
2023/09/09 10:41:50;;;;;;;21.63;20.80;;;29.10;99.90;;;;;;5072858;28;20618;-63
2023/09/09 10:44:18;;;;;;;20.52;19.83;;;29.20;99.90;;;;;;5072357;28;20603;-63
2023/09/09 10:46:45;;;;;;;24.08;23.08;;;29.30;99.90;;;;;;5064017;28;20234;-62
2023/09/09 10:49:16;;;;;;;22.15;21.33;;;29.50;99.90;;;;;;5072710;28;20268;-63
2023/09/09 10:51:48;;;;;;;22.48;21.67;;;29.50;99.90;;;;;;5073428;28;20204;-63
2023/09/09 10:54:16;;;;;;;20.63;19.92;;;29.50;99.90;;;;;;5072922;28;20294;-63
2023/09/09 10:56:47;;;;;;;32.05;30.65;;;29.40;99.90;;;;;;5073430;28;20298;-63
2023/09/09 10:59:19;;;;;;;20.63;19.92;;;29.40;99.90;;;;;;5072754;28;20298;-62
2023/09/09 11:01:48;;;;;;;20.25;19.48;;;29.40;99.90;;;;;;5072956;28;20294;-63
2023/09/09 11:04:20;;;;;;;22.65;21.77;;;29.40;99.90;;;;;;5072622;28;20290;-64
2023/09/09 11:07:08;;;;;;;23.33;22.42;;;29.50;99.90;;;;;;5074414;28;20303;-63
2023/09/09 11:09:36;;;;;;;25.23;24.25;;;29.50;99.90;;;;;;5071901;28;20633;-62
2023/09/09 11:12:13;;;;;;;42.22;40.20;;;29.50;99.90;;;;;;5070544;28;20225;-62
2023/09/09 11:14:45;;;;;;;23.52;22.63;;;29.50;99.90;;;;;;5072050;28;20199;-61
2023/09/09 11:17:13;;;;;;;19.42;18.73;;;29.60;99.90;;;;;;5072132;28;20223;-62
2023/09/09 11:19:41;;;;;;;33.13;31.85;;;29.60;99.90;;;;;;5072838;28;20233;-62
2023/09/09 11:22:09;;;;;;;23.35;22.50;;;29.80;99.90;;;;;;5071456;28;20214;-62
2023/09/09 11:24:36;;;;;;;21.38;20.58;;;29.80;99.90;;;;;;5064552;28;20303;-65
2023/09/09 11:27:05;;;;;;;20.65;19.90;;;29.90;99.90;;;;;;5072058;28;20264;-63
2023/09/09 11:29:32;;;;;;;21.67;20.88;;;30.10;99.90;;;;;;5071649;28;20195;-64
2023/09/09 11:32:00;;;;;;;28.38;27.13;;;30.10;99.90;;;;;;5071133;28;20203;-62
2023/09/09 11:34:32;;;;;;;21.52;20.73;;;30.10;99.90;;;;;;5063511;28;20354;-63
2023/09/09 11:36:59;;;;;;;19.88;19.13;;;30.10;99.90;;;;;;5069137;28;20230;-63
2023/09/09 11:39:26;;;;;;;25.95;24.95;;;30.30;99.90;;;;;;5061364;28;20225;-62
2023/09/09 11:41:53;;;;;;;21.95;21.15;;;30.30;99.90;;;;;;5049958;28;20573;-62
2023/09/09 11:44:20;;;;;;;22.20;21.40;;;30.10;99.90;;;;;;5048802;28;20210;-63
2023/09/09 11:46:48;;;;;;;20.55;19.75;;;30.20;99.90;;;;;;5046620;28;20226;-64
2023/09/09 11:49:18;;;;;;;20.75;19.95;;;30.30;99.90;;;;;;5048930;28;20207;-64
2023/09/09 11:51:46;;;;;;;20.75;20.00;;;30.50;99.90;;;;;;5046495;28;20246;-64
2023/09/09 11:54:18;;;;;;;23.45;22.63;;;30.40;99.90;;;;;;5046280;28;20201;-63
2023/09/09 11:56:45;;;;;;;22.85;21.95;;;30.50;99.90;;;;;;5051020;28;20235;-62
2023/09/09 11:59:12;;;;;;;30.33;29.23;;;30.50;99.90;;;;;;5045441;28;20561;-64
2023/09/09 12:01:43;;;;;;;28.33;27.30;;;30.60;99.90;;;;;;5044679;28;20200;-62
2023/09/09 12:04:10;;;;;;;43.30;41.65;;;30.80;99.90;;;;;;5052708;28;20631;-62
2023/09/09 12:06:39;;;;;;;37.92;36.55;;;30.90;99.90;;;;;;5045090;28;20227;-64
2023/09/09 12:09:08;;;;;;;45.60;43.95;;;30.90;99.90;;;;;;5051101;28;20204;-62
2023/09/09 12:11:35;;;;;;;90.57;86.80;;;31.00;99.90;;;;;;5051858;28;20211;-64
2023/09/09 12:14:03;;;;;;;48.38;46.67;;;31.00;99.90;;;;;;5052439;28;20203;-62
2023/09/09 12:16:31;;;;;;;58.53;56.30;;;31.00;99.90;;;;;;5053889;28;20211;-62
2023/09/09 12:18:58;;;;;;;57.60;55.50;;;31.00;99.90;;;;;;5052668;28;20547;-64
2023/09/09 12:21:25;;;;;;;70.53;67.72;;;30.90;99.90;;;;;;5052663;28;20561;-64
2023/09/09 12:23:59;;;;;;;93.28;88.80;;;31.00;99.90;;;;;;5052566;28;20210;-62
2023/09/09 12:26:27;;;;;;;52.90;50.92;;;30.90;99.90;;;;;;5071109;28;20230;-62
2023/09/09 12:29:09;;;;;;;54.83;52.88;;;30.70;99.90;;;;;;5063289;28;20598;-62
2023/09/09 12:31:54;;;;;;;71.72;69.10;;;30.70;99.90;;;;;;5055768;28;20203;-63